sensor_id;sensor_type;location;lat;lon;timestamp;P1;durP1;ratioP1;P2;durP2;ratioP2
36391;SDS011;22639;42.690;23.356;2022-09-12T00:01:18;12.32;;;10.80;;
36391;SDS011;22639;42.690;23.356;2022-09-12T00:03:45;12.40;;;11.20;;
36391;SDS011;22639;42.690;23.356;2022-09-12T00:06:12;12.00;;;10.90;;
36391;SDS011;22639;42.690;23.356;2022-09-12T00:08:40;12.02;;;10.90;;
36391;SDS011;22639;42.690;23.356;2022-09-12T00:11:07;10.75;;;9.80;;
36391;SDS011;22639;42.690;23.356;2022-09-12T00:13:34;12.05;;;10.93;;
36391;SDS011;22639;42.690;23.356;2022-09-12T00:16:00;11.65;;;10.23;;
36391;SDS011;22639;42.690;23.356;2022-09-12T00:18:26;11.75;;;10.55;;
36391;SDS011;22639;42.690;23.356;2022-09-12T00:20:51;11.48;;;10.38;;
36391;SDS011;22639;42.690;23.356;2022-09-12T00:23:17;12.50;;;11.30;;
36391;SDS011;22639;42.690;23.356;2022-09-12T00:25:43;12.60;;;11.20;;
36391;SDS011;22639;42.690;23.356;2022-09-12T00:28:10;12.68;;;11.35;;
36391;SDS011;22639;42.690;23.356;2022-09-12T00:30:43;12.52;;;11.40;;
36391;SDS011;22639;42.690;23.356;2022-09-12T00:33:10;12.18;;;10.98;;
36391;SDS011;22639;42.690;23.356;2022-09-12T00:35:40;11.65;;;10.57;;
36391;SDS011;22639;42.690;23.356;2022-09-12T00:38:10;10.93;;;10.02;;
36391;SDS011;22639;42.690;23.356;2022-09-12T00:40:36;11.05;;;10.05;;
36391;SDS011;22639;42.690;23.356;2022-09-12T00:43:02;10.63;;;9.63;;
36391;SDS011;22639;42.690;23.356;2022-09-12T00:45:29;11.52;;;10.43;;
36391;SDS011;22639;42.690;23.356;2022-09-12T00:47:56;9.85;;;8.95;;
36391;SDS011;22639;42.690;23.356;2022-09-12T00:50:23;11.27;;;10.18;;
36391;SDS011;22639;42.690;23.356;2022-09-12T00:52:51;10.45;;;9.45;;
36391;SDS011;22639;42.690;23.356;2022-09-12T00:55:32;11.82;;;10.70;;
36391;SDS011;22639;42.690;23.356;2022-09-12T00:58:08;10.10;;;9.02;;
36391;SDS011;22639;42.690;23.356;2022-09-12T01:00:38;10.02;;;9.13;;
36391;SDS011;22639;42.690;23.356;2022-09-12T01:03:05;10.00;;;8.95;;
36391;SDS011;22639;42.690;23.356;2022-09-12T01:05:38;10.50;;;9.50;;
36391;SDS011;22639;42.690;23.356;2022-09-12T01:08:08;9.70;;;8.80;;
36391;SDS011;22639;42.690;23.356;2022-09-12T01:10:36;9.97;;;9.07;;
36391;SDS011;22639;42.690;23.356;2022-09-12T01:13:04;9.23;;;8.27;;
36391;SDS011;22639;42.690;23.356;2022-09-12T01:15:31;9.50;;;8.60;;
36391;SDS011;22639;42.690;23.356;2022-09-12T01:18:04;9.20;;;8.30;;
36391;SDS011;22639;42.690;23.356;2022-09-12T01:26:10;9.40;;;8.40;;
36391;SDS011;22639;42.690;23.356;2022-09-12T01:28:59;8.57;;;7.77;;
36391;SDS011;22639;42.690;23.356;2022-09-12T01:34:25;10.00;;;9.10;;
36391;SDS011;22639;42.690;23.356;2022-09-12T01:45:12;8.70;;;7.90;;
36391;SDS011;22639;42.690;23.356;2022-09-12T01:48:32;9.10;;;8.20;;
36391;SDS011;22639;42.690;23.356;2022-09-12T01:50:57;8.47;;;7.67;;
36391;SDS011;22639;42.690;23.356;2022-09-12T01:53:28;10.25;;;8.25;;
36391;SDS011;22639;42.690;23.356;2022-09-12T01:56:07;8.73;;;7.93;;
36391;SDS011;22639;42.690;23.356;2022-09-12T01:58:42;10.13;;;7.80;;
36391;SDS011;22639;42.690;23.356;2022-09-12T02:01:14;9.40;;;8.50;;
36391;SDS011;22639;42.690;23.356;2022-09-12T02:10:28;8.10;;;7.40;;
36391;SDS011;22639;42.690;23.356;2022-09-12T02:12:50;7.57;;;6.87;;
36391;SDS011;22639;42.690;23.356;2022-09-12T02:15:20;7.97;;;7.17;;
36391;SDS011;22639;42.690;23.356;2022-09-12T02:17:53;9.05;;;7.05;;
36391;SDS011;22639;42.690;23.356;2022-09-12T02:20:25;7.10;;;6.40;;
36391;SDS011;22639;42.690;23.356;2022-09-12T02:22:53;7.50;;;6.80;;
36391;SDS011;22639;42.690;23.356;2022-09-12T02:25:21;8.60;;;6.93;;
36391;SDS011;22639;42.690;23.356;2022-09-12T02:27:52;7.28;;;6.57;;
36391;SDS011;22639;42.690;23.356;2022-09-12T02:30:25;9.20;;;7.20;;
36391;SDS011;22639;42.690;23.356;2022-09-12T02:32:59;9.20;;;7.70;;
36391;SDS011;22639;42.690;23.356;2022-09-12T02:40:46;7.83;;;7.13;;
36391;SDS011;22639;42.690;23.356;2022-09-12T02:43:11;8.63;;;7.13;;
36391;SDS011;22639;42.690;23.356;2022-09-12T02:45:37;8.10;;;7.30;;
36391;SDS011;22639;42.690;23.356;2022-09-12T02:50:41;7.40;;;6.70;;
36391;SDS011;22639;42.690;23.356;2022-09-12T02:53:07;8.20;;;7.33;;
36391;SDS011;22639;42.690;23.356;2022-09-12T02:55:34;8.13;;;7.33;;
36391;SDS011;22639;42.690;23.356;2022-09-12T02:58:04;8.83;;;7.93;;
36391;SDS011;22639;42.690;23.356;2022-09-12T03:00:43;8.10;;;7.30;;
36391;SDS011;22639;42.690;23.356;2022-09-12T03:06:29;8.27;;;7.30;;
36391;SDS011;22639;42.690;23.356;2022-09-12T03:17:17;7.50;;;6.70;;
36391;SDS011;22639;42.690;23.356;2022-09-12T03:23:11;8.85;;;7.85;;
36391;SDS011;22639;42.690;23.356;2022-09-12T03:25:49;10.00;;;7.80;;
36391;SDS011;22639;42.690;23.356;2022-09-12T03:28:20;8.83;;;8.03;;
36391;SDS011;22639;42.690;23.356;2022-09-12T03:30:47;8.50;;;7.43;;
36391;SDS011;22639;42.690;23.356;2022-09-12T03:33:19;9.23;;;8.33;;
36391;SDS011;22639;42.690;23.356;2022-09-12T03:35:46;8.27;;;7.47;;
36391;SDS011;22639;42.690;23.356;2022-09-12T03:38:12;10.07;;;8.83;;
36391;SDS011;22639;42.690;23.356;2022-09-12T03:40:38;9.73;;;8.80;;
36391;SDS011;22639;42.690;23.356;2022-09-12T03:43:07;9.53;;;8.63;;
36391;SDS011;22639;42.690;23.356;2022-09-12T03:45:34;9.17;;;8.27;;
36391;SDS011;22639;42.690;23.356;2022-09-12T03:48:00;9.33;;;8.40;;
36391;SDS011;22639;42.690;23.356;2022-09-12T03:50:26;12.43;;;9.03;;
36391;SDS011;22639;42.690;23.356;2022-09-12T03:52:52;9.67;;;8.67;;
36391;SDS011;22639;42.690;23.356;2022-09-12T03:55:17;11.50;;;9.00;;
36391;SDS011;22639;42.690;23.356;2022-09-12T03:57:43;9.27;;;8.33;;
36391;SDS011;22639;42.690;23.356;2022-09-12T04:00:09;9.80;;;8.80;;
36391;SDS011;22639;42.690;23.356;2022-09-12T04:02:35;10.37;;;9.27;;
36391;SDS011;22639;42.690;23.356;2022-09-12T04:05:01;8.97;;;8.13;;
36391;SDS011;22639;42.690;23.356;2022-09-12T04:07:26;10.47;;;9.27;;
36391;SDS011;22639;42.690;23.356;2022-09-12T04:09:52;10.57;;;8.20;;
36391;SDS011;22639;42.690;23.356;2022-09-12T04:12:20;9.57;;;8.48;;
36391;SDS011;22639;42.690;23.356;2022-09-12T04:14:46;9.57;;;8.35;;
36391;SDS011;22639;42.690;23.356;2022-09-12T04:17:12;9.77;;;7.60;;
36391;SDS011;22639;42.690;23.356;2022-09-12T04:19:38;10.77;;;8.03;;
36391;SDS011;22639;42.690;23.356;2022-09-12T04:22:04;8.20;;;7.50;;
36391;SDS011;22639;42.690;23.356;2022-09-12T04:24:29;9.13;;;8.17;;
36391;SDS011;22639;42.690;23.356;2022-09-12T04:26:55;10.77;;;8.70;;
36391;SDS011;22639;42.690;23.356;2022-09-12T04:29:21;10.50;;;7.80;;
36391;SDS011;22639;42.690;23.356;2022-09-12T04:31:46;8.48;;;7.75;;
36391;SDS011;22639;42.690;23.356;2022-09-12T04:34:12;8.40;;;6.40;;
36391;SDS011;22639;42.690;23.356;2022-09-12T04:36:37;7.90;;;7.07;;
36391;SDS011;22639;42.690;23.356;2022-09-12T04:39:03;6.55;;;5.95;;
36391;SDS011;22639;42.690;23.356;2022-09-12T04:41:31;6.15;;;5.57;;
36391;SDS011;22639;42.690;23.356;2022-09-12T04:43:59;7.43;;;6.60;;
36391;SDS011;22639;42.690;23.356;2022-09-12T04:46:27;7.38;;;6.47;;
36391;SDS011;22639;42.690;23.356;2022-09-12T04:48:56;6.25;;;5.65;;
36391;SDS011;22639;42.690;23.356;2022-09-12T04:51:26;6.22;;;5.63;;
36391;SDS011;22639;42.690;23.356;2022-09-12T04:53:57;5.65;;;5.22;;
36391;SDS011;22639;42.690;23.356;2022-09-12T04:56:30;5.70;;;5.22;;
36391;SDS011;22639;42.690;23.356;2022-09-12T04:58:57;6.43;;;5.75;;
36391;SDS011;22639;42.690;23.356;2022-09-12T05:01:24;8.20;;;5.85;;
36391;SDS011;22639;42.690;23.356;2022-09-12T05:03:51;6.80;;;5.25;;
36391;SDS011;22639;42.690;23.356;2022-09-12T05:06:18;5.47;;;4.97;;
36391;SDS011;22639;42.690;23.356;2022-09-12T05:08:48;5.93;;;5.43;;
36391;SDS011;22639;42.690;23.356;2022-09-12T05:11:18;5.05;;;4.65;;
36391;SDS011;22639;42.690;23.356;2022-09-12T05:13:47;5.45;;;4.95;;
36391;SDS011;22639;42.690;23.356;2022-09-12T05:16:14;5.07;;;4.57;;
36391;SDS011;22639;42.690;23.356;2022-09-12T05:18:41;5.35;;;4.85;;
36391;SDS011;22639;42.690;23.356;2022-09-12T05:21:11;6.90;;;5.10;;
36391;SDS011;22639;42.690;23.356;2022-09-12T05:23:38;5.13;;;4.70;;
36391;SDS011;22639;42.690;23.356;2022-09-12T05:26:04;4.72;;;3.85;;
36391;SDS011;22639;42.690;23.356;2022-09-12T05:28:33;4.13;;;3.80;;
36391;SDS011;22639;42.690;23.356;2022-09-12T05:33:43;5.30;;;4.82;;
36391;SDS011;22639;42.690;23.356;2022-09-12T05:36:11;5.03;;;4.63;;
36391;SDS011;22639;42.690;23.356;2022-09-12T05:38:38;6.45;;;5.45;;
36391;SDS011;22639;42.690;23.356;2022-09-12T05:41:08;8.82;;;6.05;;
36391;SDS011;22639;42.690;23.356;2022-09-12T05:43:35;5.97;;;5.18;;
36391;SDS011;22639;42.690;23.356;2022-09-12T05:46:12;6.30;;;5.53;;
36391;SDS011;22639;42.690;23.356;2022-09-12T05:48:40;5.13;;;4.70;;
36391;SDS011;22639;42.690;23.356;2022-09-12T05:51:08;5.00;;;4.50;;
36391;SDS011;22639;42.690;23.356;2022-09-12T05:53:36;5.53;;;5.13;;
36391;SDS011;22639;42.690;23.356;2022-09-12T05:58:33;4.55;;;3.90;;
36391;SDS011;22639;42.690;23.356;2022-09-12T06:01:01;4.75;;;4.32;;
36391;SDS011;22639;42.690;23.356;2022-09-12T06:03:35;6.13;;;5.40;;
36391;SDS011;22639;42.690;23.356;2022-09-12T06:06:04;4.22;;;3.92;;
36391;SDS011;22639;42.690;23.356;2022-09-12T06:08:31;11.05;;;9.10;;
36391;SDS011;22639;42.690;23.356;2022-09-12T06:10:58;5.03;;;4.60;;
36391;SDS011;22639;42.690;23.356;2022-09-12T06:13:29;4.25;;;3.85;;
36391;SDS011;22639;42.690;23.356;2022-09-12T06:16:00;4.60;;;4.20;;
36391;SDS011;22639;42.690;23.356;2022-09-12T06:18:30;5.65;;;4.03;;
36391;SDS011;22639;42.690;23.356;2022-09-12T06:20:57;4.28;;;3.97;;
36391;SDS011;22639;42.690;23.356;2022-09-12T06:23:25;4.78;;;3.53;;
36391;SDS011;22639;42.690;23.356;2022-09-12T06:25:51;4.63;;;4.20;;
36391;SDS011;22639;42.690;23.356;2022-09-12T06:28:16;6.82;;;5.28;;
36391;SDS011;22639;42.690;23.356;2022-09-12T06:30:42;4.20;;;3.90;;
36391;SDS011;22639;42.690;23.356;2022-09-12T06:33:07;7.97;;;4.88;;
36391;SDS011;22639;42.690;23.356;2022-09-12T06:35:36;4.32;;;4.03;;
36391;SDS011;22639;42.690;23.356;2022-09-12T06:38:03;4.20;;;3.90;;
36391;SDS011;22639;42.690;23.356;2022-09-12T06:40:29;4.32;;;4.03;;
36391;SDS011;22639;42.690;23.356;2022-09-12T06:42:54;9.35;;;6.57;;
36391;SDS011;22639;42.690;23.356;2022-09-12T06:45:20;4.97;;;4.63;;
36391;SDS011;22639;42.690;23.356;2022-09-12T06:47:46;5.85;;;4.90;;
36391;SDS011;22639;42.690;23.356;2022-09-12T06:50:12;6.65;;;5.65;;
36391;SDS011;22639;42.690;23.356;2022-09-12T06:52:38;7.20;;;6.32;;
36391;SDS011;22639;42.690;23.356;2022-09-12T06:55:03;5.53;;;5.03;;
36391;SDS011;22639;42.690;23.356;2022-09-12T06:57:30;5.80;;;5.38;;
36391;SDS011;22639;42.690;23.356;2022-09-12T06:59:57;5.47;;;5.10;;
36391;SDS011;22639;42.690;23.356;2022-09-12T07:02:22;6.07;;;5.57;;
36391;SDS011;22639;42.690;23.356;2022-09-12T07:04:49;5.50;;;5.10;;
36391;SDS011;22639;42.690;23.356;2022-09-12T07:07:15;5.45;;;5.05;;
36391;SDS011;22639;42.690;23.356;2022-09-12T07:09:41;5.80;;;5.30;;
36391;SDS011;22639;42.690;23.356;2022-09-12T07:12:07;5.90;;;5.50;;
36391;SDS011;22639;42.690;23.356;2022-09-12T07:14:32;6.80;;;6.10;;
36391;SDS011;22639;42.690;23.356;2022-09-12T07:16:58;6.13;;;5.53;;
36391;SDS011;22639;42.690;23.356;2022-09-12T07:19:23;8.85;;;8.13;;
36391;SDS011;22639;42.690;23.356;2022-09-12T07:21:49;7.10;;;6.40;;
36391;SDS011;22639;42.690;23.356;2022-09-12T07:24:14;6.65;;;6.05;;
36391;SDS011;22639;42.690;23.356;2022-09-12T07:26:40;4.95;;;4.60;;
36391;SDS011;22639;42.690;23.356;2022-09-12T07:29:06;6.50;;;6.00;;
36391;SDS011;22639;42.690;23.356;2022-09-12T07:31:33;6.13;;;5.63;;
36391;SDS011;22639;42.690;23.356;2022-09-12T07:33:58;6.57;;;5.93;;
36391;SDS011;22639;42.690;23.356;2022-09-12T07:36:24;5.82;;;5.28;;
36391;SDS011;22639;42.690;23.356;2022-09-12T07:38:55;5.03;;;4.70;;
36391;SDS011;22639;42.690;23.356;2022-09-12T07:41:23;7.03;;;6.32;;
36391;SDS011;22639;42.690;23.356;2022-09-12T07:43:57;5.78;;;5.20;;
36391;SDS011;22639;42.690;23.356;2022-09-12T07:46:24;6.05;;;4.88;;
36391;SDS011;22639;42.690;23.356;2022-09-12T07:48:52;7.68;;;5.70;;
36391;SDS011;22639;42.690;23.356;2022-09-12T07:51:19;5.63;;;5.20;;
36391;SDS011;22639;42.690;23.356;2022-09-12T07:53:46;6.45;;;5.10;;
36391;SDS011;22639;42.690;23.356;2022-09-12T07:56:13;5.20;;;4.72;;
36391;SDS011;22639;42.690;23.356;2022-09-12T07:58:40;5.97;;;5.18;;
36391;SDS011;22639;42.690;23.356;2022-09-12T08:01:14;5.15;;;4.65;;
36391;SDS011;22639;42.690;23.356;2022-09-12T08:03:42;5.45;;;5.05;;
36391;SDS011;22639;42.690;23.356;2022-09-12T08:06:19;4.85;;;4.45;;
36391;SDS011;22639;42.690;23.356;2022-09-12T08:08:48;5.45;;;4.95;;
36391;SDS011;22639;42.690;23.356;2022-09-12T08:11:16;4.90;;;4.60;;
36391;SDS011;22639;42.690;23.356;2022-09-12T08:13:43;4.97;;;4.57;;
36391;SDS011;22639;42.690;23.356;2022-09-12T08:16:12;4.70;;;4.40;;
36391;SDS011;22639;42.690;23.356;2022-09-12T08:18:42;4.82;;;4.47;;
36391;SDS011;22639;42.690;23.356;2022-09-12T08:21:09;4.65;;;4.35;;
36391;SDS011;22639;42.690;23.356;2022-09-12T08:23:37;5.25;;;4.65;;
36391;SDS011;22639;42.690;23.356;2022-09-12T08:26:03;4.63;;;4.32;;
36391;SDS011;22639;42.690;23.356;2022-09-12T08:28:30;4.32;;;4.03;;
36391;SDS011;22639;42.690;23.356;2022-09-12T08:31:01;3.97;;;3.75;;
36391;SDS011;22639;42.690;23.356;2022-09-12T08:33:31;3.78;;;3.47;;
36391;SDS011;22639;42.690;23.356;2022-09-12T08:36:17;4.47;;;3.75;;
36391;SDS011;22639;42.690;23.356;2022-09-12T08:38:43;4.75;;;4.45;;
36391;SDS011;22639;42.690;23.356;2022-09-12T08:52:14;5.18;;;4.60;;
36391;SDS011;22639;42.690;23.356;2022-09-12T08:54:45;4.70;;;4.30;;
36391;SDS011;22639;42.690;23.356;2022-09-12T08:57:11;4.75;;;4.35;;
36391;SDS011;22639;42.690;23.356;2022-09-12T08:59:40;4.40;;;4.00;;
36391;SDS011;22639;42.690;23.356;2022-09-12T09:10:38;5.78;;;4.00;;
36391;SDS011;22639;42.690;23.356;2022-09-12T09:16:29;6.22;;;5.55;;
36391;SDS011;22639;42.690;23.356;2022-09-12T09:19:00;4.15;;;3.85;;
36391;SDS011;22639;42.690;23.356;2022-09-12T09:21:34;6.03;;;5.53;;
36391;SDS011;22639;42.690;23.356;2022-09-12T09:24:20;4.82;;;4.47;;
36391;SDS011;22639;42.690;23.356;2022-09-12T09:29:29;8.20;;;6.93;;
36391;SDS011;22639;42.690;23.356;2022-09-12T09:32:02;5.13;;;4.72;;
36391;SDS011;22639;42.690;23.356;2022-09-12T09:34:34;4.63;;;4.32;;
36391;SDS011;22639;42.690;23.356;2022-09-12T09:42:40;5.32;;;4.93;;
36391;SDS011;22639;42.690;23.356;2022-09-12T09:45:12;4.70;;;4.30;;
36391;SDS011;22639;42.690;23.356;2022-09-12T09:48:00;5.30;;;4.93;;
36391;SDS011;22639;42.690;23.356;2022-09-12T09:50:41;4.13;;;3.83;;
36391;SDS011;22639;42.690;23.356;2022-09-12T09:53:32;5.00;;;4.60;;
36391;SDS011;22639;42.690;23.356;2022-09-12T09:56:12;5.40;;;4.90;;
36391;SDS011;22639;42.690;23.356;2022-09-12T09:58:48;5.00;;;4.65;;
36391;SDS011;22639;42.690;23.356;2022-09-12T10:01:14;6.57;;;6.07;;
36391;SDS011;22639;42.690;23.356;2022-09-12T10:03:46;6.82;;;6.20;;
36391;SDS011;22639;42.690;23.356;2022-09-12T10:08:45;5.57;;;5.05;;
36391;SDS011;22639;42.690;23.356;2022-09-12T10:16:19;4.30;;;4.00;;
36391;SDS011;22639;42.690;23.356;2022-09-12T10:18:46;4.40;;;4.10;;
36391;SDS011;22639;42.690;23.356;2022-09-12T10:21:16;5.03;;;4.63;;
36391;SDS011;22639;42.690;23.356;2022-09-12T10:26:39;7.22;;;5.53;;
36391;SDS011;22639;42.690;23.356;2022-09-12T10:29:15;6.55;;;6.05;;
36391;SDS011;22639;42.690;23.356;2022-09-12T10:31:47;6.47;;;5.97;;
36391;SDS011;22639;42.690;23.356;2022-09-12T10:37:02;6.15;;;5.65;;
36391;SDS011;22639;42.690;23.356;2022-09-12T10:39:33;8.07;;;5.68;;
36391;SDS011;22639;42.690;23.356;2022-09-12T10:42:00;5.32;;;4.90;;
36391;SDS011;22639;42.690;23.356;2022-09-12T10:44:31;5.38;;;4.97;;
36391;SDS011;22639;42.690;23.356;2022-09-12T10:46:59;5.55;;;5.15;;
36391;SDS011;22639;42.690;23.356;2022-09-12T10:49:42;4.75;;;4.35;;
36391;SDS011;22639;42.690;23.356;2022-09-12T10:52:21;4.88;;;4.35;;
36391;SDS011;22639;42.690;23.356;2022-09-12T10:54:49;6.20;;;5.60;;
36391;SDS011;22639;42.690;23.356;2022-09-12T11:00:19;5.57;;;5.15;;
36391;SDS011;22639;42.690;23.356;2022-09-12T11:05:54;5.78;;;5.18;;
36391;SDS011;22639;42.690;23.356;2022-09-12T11:09:07;6.30;;;5.68;;
36391;SDS011;22639;42.690;23.356;2022-09-12T11:11:42;6.53;;;5.82;;
36391;SDS011;22639;42.690;23.356;2022-09-12T11:16:47;6.22;;;5.72;;
36391;SDS011;22639;42.690;23.356;2022-09-12T11:22:14;7.20;;;6.65;;
36391;SDS011;22639;42.690;23.356;2022-09-12T11:25:10;8.27;;;6.60;;
36391;SDS011;22639;42.690;23.356;2022-09-12T11:28:01;6.35;;;5.80;;
36391;SDS011;22639;42.690;23.356;2022-09-12T11:30:52;6.30;;;5.80;;
36391;SDS011;22639;42.690;23.356;2022-09-12T11:33:40;6.13;;;5.63;;
36391;SDS011;22639;42.690;23.356;2022-09-12T11:36:16;6.15;;;5.55;;
36391;SDS011;22639;42.690;23.356;2022-09-12T11:41:51;7.50;;;6.80;;
36391;SDS011;22639;42.690;23.356;2022-09-12T11:44:27;6.53;;;5.45;;
36391;SDS011;22639;42.690;23.356;2022-09-12T11:47:02;6.60;;;6.00;;
36391;SDS011;22639;42.690;23.356;2022-09-12T11:49:32;6.32;;;5.82;;
36391;SDS011;22639;42.690;23.356;2022-09-12T11:54:48;5.90;;;5.40;;
36391;SDS011;22639;42.690;23.356;2022-09-12T11:59:57;6.13;;;5.63;;
36391;SDS011;22639;42.690;23.356;2022-09-12T12:02:28;4.97;;;4.57;;
36391;SDS011;22639;42.690;23.356;2022-09-12T12:07:28;5.18;;;4.75;;
36391;SDS011;22639;42.690;23.356;2022-09-12T12:10:02;5.25;;;4.75;;
36391;SDS011;22639;42.690;23.356;2022-09-12T12:13:15;5.85;;;5.32;;
36391;SDS011;22639;42.690;23.356;2022-09-12T12:15:53;5.22;;;4.57;;
36391;SDS011;22639;42.690;23.356;2022-09-12T12:18:38;6.40;;;5.90;;
36391;SDS011;22639;42.690;23.356;2022-09-12T12:21:20;7.55;;;5.57;;
36391;SDS011;22639;42.690;23.356;2022-09-12T12:36:58;4.00;;;3.65;;
36391;SDS011;22639;42.690;23.356;2022-09-12T12:44:57;4.72;;;4.30;;
36391;SDS011;22639;42.690;23.356;2022-09-12T12:47:24;7.47;;;5.88;;
36391;SDS011;22639;42.690;23.356;2022-09-12T12:50:00;5.70;;;5.30;;
36391;SDS011;22639;42.690;23.356;2022-09-12T12:52:39;6.40;;;5.80;;
36391;SDS011;22639;42.690;23.356;2022-09-12T12:55:13;6.82;;;6.15;;
36391;SDS011;22639;42.690;23.356;2022-09-12T12:57:48;7.15;;;6.50;;
36391;SDS011;22639;42.690;23.356;2022-09-12T13:02:58;6.05;;;5.65;;
36391;SDS011;22639;42.690;23.356;2022-09-12T13:05:40;6.32;;;5.70;;
36391;SDS011;22639;42.690;23.356;2022-09-12T13:10:48;5.50;;;4.93;;
36391;SDS011;22639;42.690;23.356;2022-09-12T13:13:22;6.68;;;6.13;;
36391;SDS011;22639;42.690;23.356;2022-09-12T13:15:51;6.93;;;6.32;;
36391;SDS011;22639;42.690;23.356;2022-09-12T13:18:24;6.55;;;5.95;;
36391;SDS011;22639;42.690;23.356;2022-09-12T13:23:30;6.25;;;5.85;;
36391;SDS011;22639;42.690;23.356;2022-09-12T13:25:57;7.25;;;6.65;;
36391;SDS011;22639;42.690;23.356;2022-09-12T13:28:25;7.90;;;7.30;;
36391;SDS011;22639;42.690;23.356;2022-09-12T13:31:01;6.80;;;6.28;;
36391;SDS011;22639;42.690;23.356;2022-09-12T13:33:39;6.43;;;5.93;;
36391;SDS011;22639;42.690;23.356;2022-09-12T13:44:13;6.90;;;6.35;;
36391;SDS011;22639;42.690;23.356;2022-09-12T13:46:42;5.88;;;5.35;;
36391;SDS011;22639;42.690;23.356;2022-09-12T13:49:18;6.35;;;5.85;;
36391;SDS011;22639;42.690;23.356;2022-09-12T13:51:58;7.68;;;6.50;;
36391;SDS011;22639;42.690;23.356;2022-09-12T13:54:27;6.80;;;6.25;;
36391;SDS011;22639;42.690;23.356;2022-09-12T13:56:54;7.05;;;6.45;;
36391;SDS011;22639;42.690;23.356;2022-09-12T13:59:19;7.45;;;6.70;;
36391;SDS011;22639;42.690;23.356;2022-09-12T14:01:45;8.23;;;7.63;;
36391;SDS011;22639;42.690;23.356;2022-09-12T14:04:19;9.50;;;7.28;;
36391;SDS011;22639;42.690;23.356;2022-09-12T14:07:10;7.97;;;7.20;;
36391;SDS011;22639;42.690;23.356;2022-09-12T14:09:42;8.10;;;7.50;;
36391;SDS011;22639;42.690;23.356;2022-09-12T14:12:13;7.90;;;7.30;;
36391;SDS011;22639;42.690;23.356;2022-09-12T14:14:46;7.65;;;6.95;;
36391;SDS011;22639;42.690;23.356;2022-09-12T14:17:17;8.90;;;8.20;;
36391;SDS011;22639;42.690;23.356;2022-09-12T14:20:06;8.85;;;8.15;;
36391;SDS011;22639;42.690;23.356;2022-09-12T14:22:36;8.00;;;7.20;;
36391;SDS011;22639;42.690;23.356;2022-09-12T14:25:03;8.80;;;7.22;;
36391;SDS011;22639;42.690;23.356;2022-09-12T14:27:36;7.68;;;7.03;;
36391;SDS011;22639;42.690;23.356;2022-09-12T14:35:33;8.43;;;7.72;;
36391;SDS011;22639;42.690;23.356;2022-09-12T14:38:45;7.30;;;6.70;;
36391;SDS011;22639;42.690;23.356;2022-09-12T14:40:58;8.05;;;7.45;;
36391;SDS011;22639;42.690;23.356;2022-09-12T14:43:26;7.95;;;7.28;;
36391;SDS011;22639;42.690;23.356;2022-09-12T14:46:02;8.10;;;7.43;;
36391;SDS011;22639;42.690;23.356;2022-09-12T14:48:31;8.30;;;7.70;;
36391;SDS011;22639;42.690;23.356;2022-09-12T14:51:01;9.25;;;8.55;;
36391;SDS011;22639;42.690;23.356;2022-09-12T14:53:34;8.32;;;7.47;;
36391;SDS011;22639;42.690;23.356;2022-09-12T14:56:08;7.18;;;6.57;;
36391;SDS011;22639;42.690;23.356;2022-09-12T14:58:36;8.60;;;7.80;;
36391;SDS011;22639;42.690;23.356;2022-09-12T15:03:35;7.55;;;7.05;;
36391;SDS011;22639;42.690;23.356;2022-09-12T15:08:56;7.55;;;6.93;;
36391;SDS011;22639;42.690;23.356;2022-09-12T15:11:23;6.57;;;6.03;;
36391;SDS011;22639;42.690;23.356;2022-09-12T15:13:49;7.57;;;6.90;;
36391;SDS011;22639;42.690;23.356;2022-09-12T15:16:15;8.60;;;7.90;;
36391;SDS011;22639;42.690;23.356;2022-09-12T15:18:41;9.48;;;7.50;;
36391;SDS011;22639;42.690;23.356;2022-09-12T15:21:11;7.47;;;6.88;;
36391;SDS011;22639;42.690;23.356;2022-09-12T15:26:09;8.07;;;7.38;;
36391;SDS011;22639;42.690;23.356;2022-09-12T15:28:36;7.55;;;6.90;;
36391;SDS011;22639;42.690;23.356;2022-09-12T15:34:00;7.78;;;6.75;;
36391;SDS011;22639;42.690;23.356;2022-09-12T15:36:27;6.90;;;6.30;;
36391;SDS011;22639;42.690;23.356;2022-09-12T15:38:53;8.10;;;7.40;;
36391;SDS011;22639;42.690;23.356;2022-09-12T15:41:20;8.02;;;7.35;;
36391;SDS011;22639;42.690;23.356;2022-09-12T15:43:47;7.82;;;7.22;;
36391;SDS011;22639;42.690;23.356;2022-09-12T15:46:14;8.40;;;7.70;;
36391;SDS011;22639;42.690;23.356;2022-09-12T15:48:41;8.30;;;7.60;;
36391;SDS011;22639;42.690;23.356;2022-09-12T15:51:11;7.78;;;7.03;;
36391;SDS011;22639;42.690;23.356;2022-09-12T15:53:44;8.65;;;7.75;;
36391;SDS011;22639;42.690;23.356;2022-09-12T15:56:12;7.95;;;7.15;;
36391;SDS011;22639;42.690;23.356;2022-09-12T15:58:40;7.80;;;7.10;;
36391;SDS011;22639;42.690;23.356;2022-09-12T16:01:06;8.48;;;7.50;;
36391;SDS011;22639;42.690;23.356;2022-09-12T16:03:35;10.10;;;7.80;;
36391;SDS011;22639;42.690;23.356;2022-09-12T16:06:01;7.30;;;6.70;;
36391;SDS011;22639;42.690;23.356;2022-09-12T16:08:28;7.65;;;7.05;;
36391;SDS011;22639;42.690;23.356;2022-09-12T16:10:59;9.02;;;8.20;;
36391;SDS011;22639;42.690;23.356;2022-09-12T16:13:27;8.27;;;7.55;;
36391;SDS011;22639;42.690;23.356;2022-09-12T16:15:56;8.70;;;7.70;;
36391;SDS011;22639;42.690;23.356;2022-09-12T16:18:23;7.85;;;7.25;;
36391;SDS011;22639;42.690;23.356;2022-09-12T16:20:52;8.60;;;7.85;;
36391;SDS011;22639;42.690;23.356;2022-09-12T16:23:18;8.95;;;8.10;;
36391;SDS011;22639;42.690;23.356;2022-09-12T16:25:44;9.20;;;8.02;;
36391;SDS011;22639;42.690;23.356;2022-09-12T16:28:09;8.77;;;7.80;;
36391;SDS011;22639;42.690;23.356;2022-09-12T16:30:35;7.65;;;6.95;;
36391;SDS011;22639;42.690;23.356;2022-09-12T16:33:01;8.10;;;7.15;;
36391;SDS011;22639;42.690;23.356;2022-09-12T16:35:26;8.27;;;7.47;;
36391;SDS011;22639;42.690;23.356;2022-09-12T16:37:52;7.82;;;7.13;;
36391;SDS011;22639;42.690;23.356;2022-09-12T16:40:17;8.82;;;7.78;;
36391;SDS011;22639;42.690;23.356;2022-09-12T16:42:44;7.85;;;7.20;;
36391;SDS011;22639;42.690;23.356;2022-09-12T16:45:10;8.85;;;8.02;;
36391;SDS011;22639;42.690;23.356;2022-09-12T16:47:36;8.73;;;8.02;;
36391;SDS011;22639;42.690;23.356;2022-09-12T16:50:02;7.97;;;7.30;;
36391;SDS011;22639;42.690;23.356;2022-09-12T16:52:28;8.70;;;7.18;;
36391;SDS011;22639;42.690;23.356;2022-09-12T16:54:55;8.57;;;7.88;;
36391;SDS011;22639;42.690;23.356;2022-09-12T16:57:20;8.48;;;7.78;;
36391;SDS011;22639;42.690;23.356;2022-09-12T16:59:47;7.53;;;6.90;;
36391;SDS011;22639;42.690;23.356;2022-09-12T17:02:12;7.75;;;7.05;;
36391;SDS011;22639;42.690;23.356;2022-09-12T17:04:38;9.73;;;8.82;;
36391;SDS011;22639;42.690;23.356;2022-09-12T17:07:04;11.48;;;10.30;;
36391;SDS011;22639;42.690;23.356;2022-09-12T17:09:30;11.48;;;10.40;;
36391;SDS011;22639;42.690;23.356;2022-09-12T17:11:55;11.55;;;10.35;;
36391;SDS011;22639;42.690;23.356;2022-09-12T17:14:21;11.52;;;10.48;;
36391;SDS011;22639;42.690;23.356;2022-09-12T17:16:47;9.55;;;8.57;;
36391;SDS011;22639;42.690;23.356;2022-09-12T17:19:14;9.95;;;9.05;;
36391;SDS011;22639;42.690;23.356;2022-09-12T17:21:42;9.55;;;8.65;;
36391;SDS011;22639;42.690;23.356;2022-09-12T17:24:09;9.05;;;8.25;;
36391;SDS011;22639;42.690;23.356;2022-09-12T17:26:34;9.07;;;8.27;;
36391;SDS011;22639;42.690;23.356;2022-09-12T17:29:00;8.95;;;8.05;;
36391;SDS011;22639;42.690;23.356;2022-09-12T17:31:25;7.00;;;6.50;;
36391;SDS011;22639;42.690;23.356;2022-09-12T17:33:54;8.50;;;7.63;;
36391;SDS011;22639;42.690;23.356;2022-09-12T17:36:20;7.97;;;7.35;;